createdAt,value
2022-10-16T00:01:38.538Z,100294.00
2022-10-16T00:04:06.715Z,100306.00
2022-10-16T00:06:34.695Z,100308.00
2022-10-16T00:09:02.529Z,100288.00
2022-10-16T00:11:34.227Z,100306.00
2022-10-16T00:14:04.059Z,100309.00
2022-10-16T00:16:33.663Z,100304.00
2022-10-16T00:19:01.404Z,100316.00
2022-10-16T00:21:31.144Z,100308.00
2022-10-16T00:24:01.205Z,100305.00
2022-10-16T00:26:30.991Z,100317.00
2022-10-16T00:28:58.780Z,100326.00
2022-10-16T00:31:26.973Z,100322.00
2022-10-16T00:33:56.148Z,100331.00
2022-10-16T00:36:26.127Z,100331.00
2022-10-16T00:38:55.670Z,100334.00
2022-10-16T00:41:26.003Z,100330.00
2022-10-16T00:43:55.766Z,100330.00
2022-10-16T00:46:26.133Z,100330.00
2022-10-16T00:48:59.677Z,100341.00
2022-10-16T00:51:32.205Z,100342.00
2022-10-16T00:54:00.946Z,100344.00
2022-10-16T00:56:28.740Z,100334.00
2022-10-16T00:58:56.497Z,100342.00
2022-10-16T01:01:24.214Z,100343.00
2022-10-16T01:03:52.022Z,100348.00
2022-10-16T01:06:38.431Z,100342.00
2022-10-16T01:09:16.218Z,100344.00
2022-10-16T01:11:50.635Z,100350.00
2022-10-16T01:14:24.855Z,100356.00
2022-10-16T01:17:00.656Z,100357.00
2022-10-16T01:19:51.781Z,100345.00
2022-10-16T01:22:23.142Z,100350.00
2022-10-16T01:24:51.992Z,100334.00
2022-10-16T01:27:25.024Z,100348.00
2022-10-16T01:29:56.782Z,100340.00
2022-10-16T01:32:32.701Z,100351.00
2022-10-16T01:35:04.071Z,100355.00
2022-10-16T01:37:37.418Z,100359.00
2022-10-16T01:40:11.027Z,100366.00
2022-10-16T01:42:43.933Z,100366.00
2022-10-16T01:45:15.405Z,100365.00
2022-10-16T01:47:44.753Z,100369.00
2022-10-16T01:50:14.317Z,100371.00
2022-10-16T01:52:45.924Z,100378.00
2022-10-16T01:55:16.458Z,100370.00
2022-10-16T01:57:49.953Z,100363.00
2022-10-16T02:00:20.925Z,100359.00
2022-10-16T02:02:54.215Z,100366.00
2022-10-16T02:05:26.529Z,100367.00
2022-10-16T02:07:54.588Z,100362.00
2022-10-16T02:10:22.974Z,100357.00
2022-10-16T02:12:58.511Z,100369.00
2022-10-16T02:15:26.218Z,100371.00
2022-10-16T02:17:53.923Z,100382.00
2022-10-16T02:20:27.177Z,100381.00
2022-10-16T02:22:57.566Z,100380.00
2022-10-16T02:25:28.881Z,100383.00
2022-10-16T02:28:03.795Z,100380.00
2022-10-16T02:30:38.450Z,100389.00
2022-10-16T02:33:09.258Z,100385.00
2022-10-16T02:35:37.768Z,100389.00
2022-10-16T02:38:07.452Z,100399.00
2022-10-16T02:40:35.681Z,100389.00
2022-10-16T02:43:06.546Z,100388.00
2022-10-16T02:45:35.197Z,100370.00
2022-10-16T02:48:02.965Z,100374.00
2022-10-16T02:50:30.795Z,100371.00
2022-10-16T02:52:58.474Z,100372.00
2022-10-16T02:55:26.244Z,100377.00
2022-10-16T02:57:54.110Z,100379.00
2022-10-16T03:00:23.179Z,100374.00
2022-10-16T03:02:50.955Z,100382.00
2022-10-16T03:05:19.152Z,100374.00
2022-10-16T03:07:46.926Z,100381.00
2022-10-16T03:10:14.829Z,100378.00
2022-10-16T03:12:42.565Z,100385.00
2022-10-16T03:15:11.073Z,100371.00
2022-10-16T03:17:40.151Z,100374.00
2022-10-16T03:20:08.887Z,100382.00
2022-10-16T03:22:36.614Z,100388.00
2022-10-16T03:25:04.604Z,100399.00
2022-10-16T03:27:32.430Z,100398.00
2022-10-16T03:30:00.204Z,100393.00
2022-10-16T03:32:29.523Z,100394.00
2022-10-16T03:34:58.694Z,100384.00
2022-10-16T03:37:27.178Z,100378.00
2022-10-16T03:39:55.818Z,100383.00
2022-10-16T03:42:23.709Z,100383.00
2022-10-16T03:44:51.413Z,100387.00
2022-10-16T03:47:22.537Z,100389.00
2022-10-16T03:49:50.306Z,100385.00
2022-10-16T03:54:52.083Z,100379.00
2022-10-16T03:57:21.570Z,100392.00
2022-10-16T03:59:49.272Z,100387.00
2022-10-16T04:02:17.065Z,100386.00
2022-10-16T04:04:44.786Z,100381.00
2022-10-16T04:07:12.538Z,100388.00
2022-10-16T04:09:41.667Z,100399.00
2022-10-16T04:12:09.504Z,100381.00
2022-10-16T04:14:37.302Z,100384.00
2022-10-16T04:17:05.087Z,100392.00
2022-10-16T04:19:32.772Z,100400.00
2022-10-16T04:22:00.443Z,100419.00
2022-10-16T04:24:28.215Z,100409.00
2022-10-16T04:26:57.654Z,100416.00
2022-10-16T04:29:25.482Z,100415.00
2022-10-16T04:31:53.298Z,100398.00
2022-10-16T04:34:21.050Z,100416.00
2022-10-16T04:36:50.181Z,100418.00
2022-10-16T04:39:18.339Z,100422.00
2022-10-16T04:41:46.038Z,100421.00
2022-10-16T04:44:15.298Z,100433.00
2022-10-16T04:46:42.987Z,100415.00
2022-10-16T04:49:10.758Z,100408.00
2022-10-16T04:51:38.486Z,100431.00
2022-10-16T04:54:06.232Z,100417.00
2022-10-16T04:56:33.926Z,100429.00
2022-10-16T04:59:01.671Z,100422.00
2022-10-16T05:01:30.817Z,100431.00
2022-10-16T05:03:58.581Z,100426.00
2022-10-16T05:06:26.511Z,100425.00
2022-10-16T05:08:54.190Z,100434.00
2022-10-16T05:11:21.919Z,100430.00
2022-10-16T05:13:50.994Z,100442.00
2022-10-16T05:16:21.349Z,100462.00
2022-10-16T05:18:53.172Z,100456.00
2022-10-16T05:21:23.765Z,100446.00
2022-10-16T05:23:51.549Z,100440.00
2022-10-16T05:26:19.213Z,100458.00
2022-10-16T05:28:46.974Z,100444.00
2022-10-16T05:31:14.718Z,100452.00
2022-10-16T05:33:42.562Z,100462.00
2022-10-16T05:36:12.456Z,100463.00
2022-10-16T05:38:41.014Z,100467.00
2022-10-16T05:41:08.948Z,100476.00
2022-10-16T05:43:36.661Z,100467.00
2022-10-16T05:46:06.186Z,100466.00
2022-10-16T05:48:34.319Z,100477.00
2022-10-16T05:51:03.721Z,100461.00
2022-10-16T05:53:34.454Z,100458.00
2022-10-16T05:56:02.253Z,100459.00
2022-10-16T05:58:31.927Z,100462.00
2022-10-16T06:01:01.706Z,100471.00
2022-10-16T06:03:29.883Z,100472.00
2022-10-16T06:05:57.698Z,100491.00
2022-10-16T06:08:25.905Z,100489.00
2022-10-16T06:11:03.958Z,100481.00
2022-10-16T06:13:32.566Z,100483.00
2022-10-16T06:16:01.436Z,100482.00
2022-10-16T06:18:30.406Z,100499.00
2022-10-16T06:20:59.006Z,100486.00
2022-10-16T06:23:27.271Z,100484.00
2022-10-16T06:25:55.021Z,100493.00
2022-10-16T06:28:24.243Z,100503.00
2022-10-16T06:31:04.196Z,100511.00
2022-10-16T06:33:35.494Z,100509.00
2022-10-16T06:36:04.139Z,100515.00
2022-10-16T06:38:31.949Z,100525.00
2022-10-16T06:41:00.289Z,100515.00
2022-10-16T06:43:33.017Z,100522.00
2022-10-16T06:46:02.178Z,100517.00
2022-10-16T06:48:30.968Z,100522.00
2022-10-16T06:51:00.260Z,100526.00
2022-10-16T06:53:31.347Z,100520.00
2022-10-16T06:56:09.470Z,100513.00
2022-10-16T06:58:38.839Z,100531.00
2022-10-16T07:01:07.377Z,100523.00
2022-10-16T07:03:35.270Z,100528.00
2022-10-16T07:06:04.723Z,100524.00
2022-10-16T07:08:33.492Z,100522.00
2022-10-16T07:11:02.046Z,100520.00
2022-10-16T07:13:29.940Z,100530.00
2022-10-16T07:15:59.058Z,100525.00
2022-10-16T07:21:06.594Z,100548.00
2022-10-16T07:23:34.517Z,100549.00
2022-10-16T07:26:02.429Z,100554.00
2022-10-16T07:28:30.715Z,100554.00
2022-10-16T07:31:03.193Z,100569.00
2022-10-16T07:33:31.107Z,100557.00
2022-10-16T07:35:58.943Z,100565.00
2022-10-16T07:38:26.662Z,100576.00
2022-10-16T07:40:58.901Z,100580.00
2022-10-16T07:43:27.077Z,100595.00
2022-10-16T07:45:56.048Z,100573.00
2022-10-16T07:48:26.347Z,100577.00
2022-10-16T07:50:54.057Z,100604.00
2022-10-16T07:53:24.842Z,100605.00
2022-10-16T07:55:54.106Z,100599.00
2022-10-16T07:58:21.851Z,100610.00
2022-10-16T08:00:49.623Z,100606.00
2022-10-16T08:03:17.393Z,100618.00
2022-10-16T08:05:46.457Z,100611.00
2022-10-16T08:08:15.626Z,100605.00
2022-10-16T08:10:43.450Z,100620.00
2022-10-16T08:13:11.277Z,100621.00
2022-10-16T08:15:39.043Z,100622.00
2022-10-16T08:18:07.364Z,100624.00
2022-10-16T08:20:35.627Z,100642.00
2022-10-16T08:23:05.153Z,100636.00
2022-10-16T08:25:33.191Z,100634.00
2022-10-16T08:28:00.881Z,100632.00
2022-10-16T08:30:28.620Z,100636.00
2022-10-16T08:32:56.374Z,100635.00
2022-10-16T08:35:24.145Z,100635.00
2022-10-16T08:37:51.910Z,100641.00
2022-10-16T08:43:18.284Z,100647.00
2022-10-16T08:46:06.025Z,100649.00
2022-10-16T08:48:39.829Z,100651.00
2022-10-16T08:51:09.157Z,100650.00
2022-10-16T08:53:46.714Z,100659.00
2022-10-16T08:56:15.999Z,100664.00
2022-10-16T09:01:17.058Z,100675.00
2022-10-16T09:03:57.486Z,100666.00
2022-10-16T09:06:45.384Z,100664.00
2022-10-16T09:09:41.715Z,100672.00
2022-10-16T09:12:16.532Z,100684.00
2022-10-16T09:15:01.511Z,100686.00
2022-10-16T09:17:42.937Z,100672.00
2022-10-16T09:20:33.519Z,100678.00
2022-10-16T09:23:15.466Z,100687.00
2022-10-16T09:25:48.531Z,100689.00
2022-10-16T09:28:18.306Z,100700.00
2022-10-16T09:30:46.868Z,100702.00
2022-10-16T09:33:15.667Z,100693.00
2022-10-16T09:35:46.102Z,100701.00
2022-10-16T09:38:24.436Z,100703.00
2022-10-16T09:41:02.535Z,100704.00
2022-10-16T09:43:37.486Z,100702.00
2022-10-16T09:46:07.483Z,100703.00
2022-10-16T09:48:39.908Z,100707.00
2022-10-16T09:51:20.239Z,100699.00
2022-10-16T09:53:49.419Z,100711.00
2022-10-16T09:56:24.840Z,100710.00
2022-10-16T09:58:55.197Z,100724.00
2022-10-16T10:01:24.962Z,100735.00
2022-10-16T10:03:54.213Z,100724.00
2022-10-16T10:06:26.413Z,100744.00
2022-10-16T10:08:58.950Z,100735.00
2022-10-16T10:11:41.240Z,100740.00
2022-10-16T10:14:18.866Z,100744.00
2022-10-16T10:16:46.839Z,100732.00
2022-10-16T10:19:19.095Z,100741.00
2022-10-16T10:21:47.484Z,100748.00
2022-10-16T10:24:16.529Z,100737.00
2022-10-16T10:26:51.200Z,100742.00
2022-10-16T10:29:32.434Z,100751.00
2022-10-16T10:32:14.689Z,100745.00
2022-10-16T10:34:56.623Z,100757.00
2022-10-16T10:37:43.987Z,100756.00
2022-10-16T10:40:23.956Z,100764.00
2022-10-16T10:42:59.670Z,100768.00
2022-10-16T10:45:38.693Z,100764.00
2022-10-16T10:48:19.371Z,100775.00
2022-10-16T10:50:54.583Z,100773.00
2022-10-16T10:53:32.124Z,100769.00
2022-10-16T10:56:09.535Z,100775.00
2022-10-16T10:59:03.154Z,100780.00
2022-10-16T11:01:41.119Z,100770.00
2022-10-16T11:04:27.607Z,100767.00
2022-10-16T11:06:59.825Z,100774.00
2022-10-16T11:09:31.790Z,100771.00
2022-10-16T11:12:05.611Z,100774.00
2022-10-16T11:14:38.526Z,100776.00
2022-10-16T11:17:12.050Z,100776.00
2022-10-16T11:19:43.656Z,100767.00
2022-10-16T11:22:17.568Z,100771.00
2022-10-16T11:24:50.677Z,100782.00
2022-10-16T11:27:22.292Z,100783.00
2022-10-16T11:29:58.575Z,100782.00
2022-10-16T11:32:37.874Z,100786.00
2022-10-16T11:35:16.962Z,100783.00
2022-10-16T11:37:48.386Z,100786.00
2022-10-16T11:40:24.603Z,100788.00
2022-10-16T11:42:56.968Z,100795.00
2022-10-16T11:45:33.011Z,100791.00
2022-10-16T11:48:06.758Z,100791.00
2022-10-16T11:50:40.654Z,100795.00
2022-10-16T11:53:16.087Z,100795.00
2022-10-16T11:55:47.155Z,100796.00
2022-10-16T11:58:24.857Z,100794.00
2022-10-16T12:01:00.778Z,100792.00
2022-10-16T12:03:33.776Z,100795.00
2022-10-16T12:06:13.353Z,100809.00
2022-10-16T12:08:42.437Z,100804.00
2022-10-16T12:11:12.035Z,100817.00
2022-10-16T12:13:41.935Z,100812.00
2022-10-16T12:16:23.629Z,100822.00
2022-10-16T12:19:11.817Z,100823.00
2022-10-16T12:21:39.801Z,100823.00
2022-10-16T12:24:08.414Z,100822.00
2022-10-16T12:26:40.374Z,100824.00
2022-10-16T12:29:16.836Z,100815.00
2022-10-16T12:31:57.448Z,100822.00
2022-10-16T12:34:31.154Z,100821.00
2022-10-16T12:37:11.276Z,100813.00
2022-10-16T12:39:39.245Z,100822.00
2022-10-16T12:42:21.621Z,100821.00
2022-10-16T12:44:49.336Z,100830.00
2022-10-16T12:47:25.668Z,100833.00
2022-10-16T12:49:56.508Z,100831.00
2022-10-16T12:52:30.229Z,100838.00
2022-10-16T12:55:00.154Z,100851.00
2022-10-16T12:57:39.034Z,100838.00
2022-10-16T13:00:20.258Z,100835.00
2022-10-16T13:03:07.721Z,100843.00
2022-10-16T13:05:53.260Z,100852.00
2022-10-16T13:08:41.581Z,100865.00
2022-10-16T13:11:19.744Z,100863.00
2022-10-16T13:14:05.232Z,100869.00
2022-10-16T13:16:43.314Z,100876.00
2022-10-16T13:19:21.135Z,100871.00
2022-10-16T13:21:58.366Z,100864.00
2022-10-16T13:24:43.999Z,100871.00
2022-10-16T13:27:24.699Z,100879.00
2022-10-16T13:29:57.038Z,100879.00
2022-10-16T13:32:25.072Z,100883.00
2022-10-16T13:34:54.492Z,100877.00
2022-10-16T13:37:28.659Z,100887.00
2022-10-16T13:40:13.863Z,100888.00
2022-10-16T13:42:42.250Z,100892.00
2022-10-16T13:45:20.422Z,100892.00
2022-10-16T13:47:48.338Z,100895.00
2022-10-16T13:50:18.033Z,100894.00
2022-10-16T13:52:47.338Z,100894.00
2022-10-16T13:55:16.180Z,100894.00
2022-10-16T13:57:44.638Z,100891.00
2022-10-16T14:00:24.767Z,100906.00
2022-10-16T14:02:57.547Z,100900.00
2022-10-16T14:05:25.399Z,100906.00
2022-10-16T14:07:56.290Z,100910.00
2022-10-16T14:10:27.652Z,100914.00
2022-10-16T14:13:00.313Z,100907.00
2022-10-16T14:15:28.461Z,100909.00
2022-10-16T14:17:56.780Z,100913.00
2022-10-16T14:20:28.260Z,100928.00
2022-10-16T14:23:05.471Z,100925.00
2022-10-16T14:25:34.318Z,100927.00
2022-10-16T14:28:05.089Z,100926.00
2022-10-16T14:30:35.042Z,100928.00
2022-10-16T14:33:04.712Z,100930.00
2022-10-16T14:35:34.122Z,100929.00
2022-10-16T14:38:05.160Z,100934.00
2022-10-16T14:40:35.033Z,100930.00
2022-10-16T14:43:04.041Z,100932.00
2022-10-16T14:45:34.729Z,100934.00
2022-10-16T14:48:07.344Z,100937.00
2022-10-16T14:50:35.037Z,100931.00
2022-10-16T14:53:04.202Z,100936.00
2022-10-16T14:55:31.914Z,100939.00
2022-10-16T14:58:00.890Z,100941.00
2022-10-16T15:00:29.005Z,100949.00
2022-10-16T15:02:56.750Z,100944.00
2022-10-16T15:05:27.164Z,100947.00
2022-10-16T15:07:56.082Z,100934.00
2022-10-16T15:10:27.688Z,100939.00
2022-10-16T15:12:55.525Z,100947.00
2022-10-16T15:15:28.918Z,100949.00
2022-10-16T15:17:57.993Z,100957.00
2022-10-16T15:20:26.356Z,100964.00
2022-10-16T15:22:54.466Z,100963.00
2022-10-16T15:25:33.082Z,100963.00
2022-10-16T15:28:01.425Z,100976.00
2022-10-16T15:30:29.360Z,100977.00
2022-10-16T15:32:57.879Z,100974.00
2022-10-16T15:35:25.684Z,100981.00
2022-10-16T15:37:53.479Z,100979.00
2022-10-16T15:40:22.326Z,100977.00
2022-10-16T15:42:51.560Z,100977.00
2022-10-16T15:45:20.654Z,100983.00
2022-10-16T15:47:48.649Z,100982.00
2022-10-16T15:50:17.280Z,100988.00
2022-10-16T15:52:45.081Z,100988.00
2022-10-16T15:55:15.806Z,100984.00
2022-10-16T15:57:44.096Z,100986.00
2022-10-16T16:00:15.847Z,100984.00
2022-10-16T16:02:44.450Z,100978.00
2022-10-16T16:05:13.242Z,100986.00
2022-10-16T16:07:41.586Z,100992.00
2022-10-16T16:10:11.899Z,100990.00
2022-10-16T16:12:40.737Z,100999.00
2022-10-16T16:15:10.807Z,101002.00
2022-10-16T16:17:39.895Z,101004.00
2022-10-16T16:20:08.816Z,101014.00
2022-10-16T16:22:36.556Z,101023.00
2022-10-16T16:25:04.583Z,101019.00
2022-10-16T16:27:34.467Z,101027.00
2022-10-16T16:30:02.445Z,101030.00
2022-10-16T16:32:30.128Z,101037.00
2022-10-16T16:34:59.165Z,101021.00
2022-10-16T16:37:27.169Z,101019.00
2022-10-16T16:39:56.033Z,101027.00
2022-10-16T16:42:25.034Z,101019.00
2022-10-16T16:44:52.800Z,101024.00
2022-10-16T16:47:21.214Z,101029.00
2022-10-16T16:49:48.921Z,101042.00
2022-10-16T16:52:18.006Z,101048.00
2022-10-16T16:54:52.294Z,101060.00
2022-10-16T16:57:20.581Z,101057.00
2022-10-16T16:59:48.350Z,101069.00
2022-10-16T17:02:16.129Z,101062.00
2022-10-16T17:04:43.866Z,101066.00
2022-10-16T17:07:11.599Z,101068.00
2022-10-16T17:09:40.683Z,101067.00
2022-10-16T17:12:08.416Z,101067.00
2022-10-16T17:14:36.114Z,101063.00
2022-10-16T17:17:03.830Z,101062.00
2022-10-16T17:19:31.733Z,101051.00
2022-10-16T17:21:59.475Z,101067.00
2022-10-16T17:24:27.266Z,101076.00
2022-10-16T17:26:56.349Z,101082.00
2022-10-16T17:29:24.051Z,101082.00
2022-10-16T17:31:51.740Z,101086.00
2022-10-16T17:34:19.782Z,101086.00
2022-10-16T17:36:47.795Z,101095.00
2022-10-16T17:39:18.915Z,101102.00
2022-10-16T17:41:47.423Z,101104.00
2022-10-16T17:44:20.744Z,101103.00
2022-10-16T17:46:49.069Z,101099.00
2022-10-16T17:49:17.233Z,101119.00
2022-10-16T17:51:45.413Z,101105.00
2022-10-16T17:54:15.164Z,101103.00
2022-10-16T17:56:43.055Z,101110.00
2022-10-16T17:59:12.490Z,101113.00
2022-10-16T18:01:44.310Z,101121.00
2022-10-16T18:04:14.060Z,101114.00
2022-10-16T18:06:43.873Z,101114.00
2022-10-16T18:09:14.970Z,101122.00
2022-10-16T18:11:42.871Z,101119.00
2022-10-16T18:14:14.444Z,101121.00
2022-10-16T18:16:44.695Z,101131.00
2022-10-16T18:19:12.949Z,101119.00
2022-10-16T18:21:41.246Z,101122.00
2022-10-16T18:24:10.049Z,101134.00
2022-10-16T18:26:37.927Z,101142.00
2022-10-16T18:29:05.834Z,101153.00
2022-10-16T18:31:35.054Z,101143.00
2022-10-16T18:34:05.403Z,101142.00
2022-10-16T18:36:34.994Z,101140.00
2022-10-16T18:39:09.197Z,101147.00
2022-10-16T18:41:38.388Z,101144.00
2022-10-16T18:44:08.031Z,101139.00
2022-10-16T18:46:35.838Z,101140.00
2022-10-16T18:49:05.107Z,101147.00
2022-10-16T18:51:35.012Z,101156.00
2022-10-16T18:54:04.998Z,101152.00
2022-10-16T18:56:33.149Z,101149.00
2022-10-16T18:59:02.719Z,101150.00
2022-10-16T19:01:33.771Z,101146.00
2022-10-16T19:04:03.575Z,101150.00
2022-10-16T19:06:35.893Z,101157.00
2022-10-16T19:09:04.407Z,101164.00
2022-10-16T19:11:33.460Z,101166.00
2022-10-16T19:14:02.962Z,101164.00
2022-10-16T19:16:32.708Z,101171.00
2022-10-16T19:19:02.800Z,101171.00
2022-10-16T19:21:35.178Z,101169.00
2022-10-16T19:24:04.617Z,101171.00
2022-10-16T19:26:35.765Z,101165.00
2022-10-16T19:29:07.005Z,101172.00
2022-10-16T19:31:35.390Z,101165.00
2022-10-16T19:34:06.564Z,101150.00
2022-10-16T19:36:38.143Z,101161.00
2022-10-16T19:39:08.739Z,101145.00
2022-10-16T19:41:38.359Z,101167.00
2022-10-16T19:44:08.005Z,101155.00
2022-10-16T19:46:36.620Z,101163.00
2022-10-16T19:49:06.044Z,101162.00
2022-10-16T19:51:35.715Z,101167.00
2022-10-16T19:54:06.116Z,101177.00
2022-10-16T19:56:35.469Z,101164.00
2022-10-16T19:59:04.438Z,101174.00
2022-10-16T20:01:33.150Z,101183.00
2022-10-16T20:04:01.109Z,101185.00
2022-10-16T20:06:29.695Z,101187.00
2022-10-16T20:08:59.107Z,101190.00
2022-10-16T20:11:29.053Z,101181.00
2022-10-16T20:13:56.831Z,101184.00
2022-10-16T20:16:24.847Z,101189.00
2022-10-16T20:18:53.758Z,101188.00
2022-10-16T20:21:24.307Z,101194.00
2022-10-16T20:23:52.357Z,101189.00
2022-10-16T20:26:24.026Z,101191.00
2022-10-16T20:28:51.932Z,101192.00
2022-10-16T20:31:22.587Z,101192.00
2022-10-16T20:33:50.916Z,101190.00
2022-10-16T20:36:20.091Z,101201.00
2022-10-16T20:38:48.313Z,101204.00
2022-10-16T20:41:17.846Z,101197.00
2022-10-16T20:43:48.508Z,101212.00
2022-10-16T20:46:19.549Z,101212.00
2022-10-16T20:48:47.872Z,101217.00
2022-10-16T20:51:17.652Z,101216.00
2022-10-16T20:53:46.477Z,101217.00
2022-10-16T20:56:15.806Z,101227.00
2022-10-16T20:58:43.558Z,101220.00
2022-10-16T21:01:15.124Z,101214.00
2022-10-16T21:03:44.729Z,101219.00
2022-10-16T21:06:12.719Z,101225.00
2022-10-16T21:08:42.639Z,101233.00
2022-10-16T21:11:11.880Z,101225.00
2022-10-16T21:13:40.001Z,101230.00
2022-10-16T21:16:08.418Z,101222.00
2022-10-16T21:18:40.751Z,101222.00
2022-10-16T21:21:12.064Z,101214.00
2022-10-16T21:23:39.745Z,101220.00
2022-10-16T21:26:08.344Z,101204.00
2022-10-16T21:28:36.222Z,101195.00
2022-10-16T21:31:12.532Z,101210.00
2022-10-16T21:33:42.382Z,101215.00
2022-10-16T21:36:14.680Z,101224.00
2022-10-16T21:38:42.657Z,101227.00
2022-10-16T21:41:15.307Z,101226.00
2022-10-16T21:43:43.068Z,101238.00
2022-10-16T21:46:10.926Z,101240.00
2022-10-16T21:48:39.293Z,101241.00
2022-10-16T21:51:08.527Z,101252.00
2022-10-16T21:53:36.278Z,101242.00
2022-10-16T21:56:04.842Z,101247.00
2022-10-16T21:58:33.581Z,101245.00
2022-10-16T22:01:08.067Z,101234.00
2022-10-16T22:03:35.982Z,101222.00
2022-10-16T22:06:06.565Z,101228.00
2022-10-16T22:08:36.469Z,101228.00
2022-10-16T22:11:05.663Z,101237.00
2022-10-16T22:13:33.836Z,101236.00
2022-10-16T22:16:01.762Z,101240.00
2022-10-16T22:18:30.053Z,101239.00
2022-10-16T22:20:57.945Z,101217.00
2022-10-16T22:23:26.144Z,101222.00
2022-10-16T22:26:00.345Z,101208.00
2022-10-16T22:28:28.156Z,101200.00
2022-10-16T22:30:55.931Z,101224.00
2022-10-16T22:33:23.681Z,101224.00
2022-10-16T22:35:51.399Z,101222.00
2022-10-16T22:38:19.145Z,101230.00
2022-10-16T22:40:47.098Z,101216.00
2022-10-16T22:43:16.198Z,101219.00
2022-10-16T22:45:43.997Z,101223.00
2022-10-16T22:48:11.729Z,101222.00
2022-10-16T22:50:39.509Z,101220.00
2022-10-16T22:53:07.222Z,101227.00
2022-10-16T22:55:35.187Z,101230.00
2022-10-16T22:58:02.877Z,101228.00
2022-10-16T23:00:32.750Z,101216.00
2022-10-16T23:03:00.498Z,101224.00
2022-10-16T23:05:28.314Z,101226.00
2022-10-16T23:07:56.047Z,101217.00
2022-10-16T23:10:27.570Z,101211.00
2022-10-16T23:12:55.230Z,101216.00
2022-10-16T23:15:23.110Z,101213.00
2022-10-16T23:17:52.281Z,101210.00
2022-10-16T23:20:19.981Z,101202.00
2022-10-16T23:22:47.655Z,101203.00
2022-10-16T23:25:15.358Z,101208.00
2022-10-16T23:27:43.117Z,101204.00
2022-10-16T23:30:11.661Z,101200.00
2022-10-16T23:32:39.401Z,101211.00
2022-10-16T23:35:09.293Z,101210.00
2022-10-16T23:37:37.046Z,101205.00
2022-10-16T23:40:05.380Z,101210.00
2022-10-16T23:42:33.169Z,101206.00
2022-10-16T23:45:00.875Z,101205.00
2022-10-16T23:47:28.929Z,101210.00
2022-10-16T23:49:57.022Z,101208.00
2022-10-16T23:52:26.155Z,101219.00
2022-10-16T23:54:53.892Z,101205.00
2022-10-16T23:57:21.582Z,101211.00
2022-10-16T23:59:49.730Z,101214.00
